sensor_id;sensor_type;location;lat;lon;timestamp;P1;durP1;ratioP1;P2;durP2;ratioP2
56943;SDS011;42848;42.524;12.052;2024-01-30T00:01:38;6.43;;;3.83;;
56943;SDS011;42848;42.524;12.052;2024-01-30T00:04:04;6.15;;;3.60;;
56943;SDS011;42848;42.524;12.052;2024-01-30T00:06:29;6.30;;;3.63;;
56943;SDS011;42848;42.524;12.052;2024-01-30T00:08:55;6.65;;;3.80;;
56943;SDS011;42848;42.524;12.052;2024-01-30T00:11:20;10.05;;;4.22;;
56943;SDS011;42848;42.524;12.052;2024-01-30T00:13:46;5.93;;;3.50;;
56943;SDS011;42848;42.524;12.052;2024-01-30T00:16:24;6.05;;;3.60;;
56943;SDS011;42848;42.524;12.052;2024-01-30T00:18:51;5.25;;;3.53;;
56943;SDS011;42848;42.524;12.052;2024-01-30T00:21:17;6.13;;;3.50;;
56943;SDS011;42848;42.524;12.052;2024-01-30T00:23:44;7.30;;;3.53;;
56943;SDS011;42848;42.524;12.052;2024-01-30T00:26:09;6.13;;;3.53;;
56943;SDS011;42848;42.524;12.052;2024-01-30T00:28:39;7.13;;;3.70;;
56943;SDS011;42848;42.524;12.052;2024-01-30T00:31:05;5.68;;;3.50;;
56943;SDS011;42848;42.524;12.052;2024-01-30T00:33:30;6.05;;;3.67;;
56943;SDS011;42848;42.524;12.052;2024-01-30T00:35:56;6.40;;;3.53;;
56943;SDS011;42848;42.524;12.052;2024-01-30T00:38:21;5.25;;;3.20;;
56943;SDS011;42848;42.524;12.052;2024-01-30T00:40:47;6.45;;;3.20;;
56943;SDS011;42848;42.524;12.052;2024-01-30T00:43:13;6.45;;;3.38;;
56943;SDS011;42848;42.524;12.052;2024-01-30T00:45:39;5.32;;;3.42;;
56943;SDS011;42848;42.524;12.052;2024-01-30T00:48:05;5.70;;;3.40;;
56943;SDS011;42848;42.524;12.052;2024-01-30T00:50:30;5.85;;;3.58;;
56943;SDS011;42848;42.524;12.052;2024-01-30T00:52:56;5.40;;;3.25;;
56943;SDS011;42848;42.524;12.052;2024-01-30T00:55:22;6.18;;;3.30;;
56943;SDS011;42848;42.524;12.052;2024-01-30T00:57:47;5.72;;;3.00;;
56943;SDS011;42848;42.524;12.052;2024-01-30T01:00:14;5.28;;;3.00;;
56943;SDS011;42848;42.524;12.052;2024-01-30T01:02:44;4.70;;;2.90;;
56943;SDS011;42848;42.524;12.052;2024-01-30T01:05:10;5.43;;;3.00;;
56943;SDS011;42848;42.524;12.052;2024-01-30T01:07:36;4.85;;;2.95;;
56943;SDS011;42848;42.524;12.052;2024-01-30T01:10:01;6.50;;;3.00;;
56943;SDS011;42848;42.524;12.052;2024-01-30T01:12:27;4.15;;;2.72;;
56943;SDS011;42848;42.524;12.052;2024-01-30T01:14:53;5.10;;;3.08;;
56943;SDS011;42848;42.524;12.052;2024-01-30T01:17:19;5.05;;;3.13;;
56943;SDS011;42848;42.524;12.052;2024-01-30T01:19:45;5.55;;;3.13;;
56943;SDS011;42848;42.524;12.052;2024-01-30T01:22:10;5.10;;;3.20;;
56943;SDS011;42848;42.524;12.052;2024-01-30T01:24:36;5.47;;;3.00;;
56943;SDS011;42848;42.524;12.052;2024-01-30T01:27:02;4.93;;;2.70;;
56943;SDS011;42848;42.524;12.052;2024-01-30T01:29:28;5.20;;;3.10;;
56943;SDS011;42848;42.524;12.052;2024-01-30T01:32:00;4.70;;;2.97;;
56943;SDS011;42848;42.524;12.052;2024-01-30T01:34:26;4.35;;;2.88;;
56943;SDS011;42848;42.524;12.052;2024-01-30T01:36:51;6.20;;;2.90;;
56943;SDS011;42848;42.524;12.052;2024-01-30T01:39:20;4.68;;;2.80;;
56943;SDS011;42848;42.524;12.052;2024-01-30T01:41:47;4.85;;;2.88;;
56943;SDS011;42848;42.524;12.052;2024-01-30T01:44:13;6.38;;;3.30;;
56943;SDS011;42848;42.524;12.052;2024-01-30T01:46:39;5.15;;;3.08;;
56943;SDS011;42848;42.524;12.052;2024-01-30T01:49:05;5.45;;;3.20;;
56943;SDS011;42848;42.524;12.052;2024-01-30T01:51:33;6.70;;;3.40;;
56943;SDS011;42848;42.524;12.052;2024-01-30T01:54:03;5.70;;;3.00;;
56943;SDS011;42848;42.524;12.052;2024-01-30T01:56:33;5.47;;;3.20;;
56943;SDS011;42848;42.524;12.052;2024-01-30T01:59:00;5.75;;;3.33;;
56943;SDS011;42848;42.524;12.052;2024-01-30T02:01:32;5.40;;;3.08;;
56943;SDS011;42848;42.524;12.052;2024-01-30T02:03:59;4.95;;;3.00;;
56943;SDS011;42848;42.524;12.052;2024-01-30T02:06:26;5.55;;;2.90;;
56943;SDS011;42848;42.524;12.052;2024-01-30T02:08:52;5.10;;;2.92;;
56943;SDS011;42848;42.524;12.052;2024-01-30T02:11:19;6.10;;;3.22;;
56943;SDS011;42848;42.524;12.052;2024-01-30T02:13:45;4.75;;;2.90;;
56943;SDS011;42848;42.524;12.052;2024-01-30T02:16:11;5.38;;;2.70;;
56943;SDS011;42848;42.524;12.052;2024-01-30T02:18:37;5.07;;;3.30;;
56943;SDS011;42848;42.524;12.052;2024-01-30T02:21:07;5.68;;;3.20;;
56943;SDS011;42848;42.524;12.052;2024-01-30T02:23:34;4.30;;;2.83;;
56943;SDS011;42848;42.524;12.052;2024-01-30T02:25:59;5.28;;;3.08;;
56943;SDS011;42848;42.524;12.052;2024-01-30T02:28:25;5.35;;;2.72;;
56943;SDS011;42848;42.524;12.052;2024-01-30T02:30:52;6.28;;;2.70;;
56943;SDS011;42848;42.524;12.052;2024-01-30T02:33:18;5.05;;;2.95;;
56943;SDS011;42848;42.524;12.052;2024-01-30T02:35:44;5.43;;;3.38;;
56943;SDS011;42848;42.524;12.052;2024-01-30T02:38:10;6.85;;;3.47;;
56943;SDS011;42848;42.524;12.052;2024-01-30T02:40:36;5.60;;;3.50;;
56943;SDS011;42848;42.524;12.052;2024-01-30T02:43:02;5.78;;;3.53;;
56943;SDS011;42848;42.524;12.052;2024-01-30T02:45:28;5.90;;;3.20;;
56943;SDS011;42848;42.524;12.052;2024-01-30T02:47:53;5.40;;;3.22;;
56943;SDS011;42848;42.524;12.052;2024-01-30T02:50:19;4.50;;;2.47;;
56943;SDS011;42848;42.524;12.052;2024-01-30T02:52:45;4.43;;;2.80;;
56943;SDS011;42848;42.524;12.052;2024-01-30T02:55:10;4.80;;;2.33;;
56943;SDS011;42848;42.524;12.052;2024-01-30T02:57:37;4.55;;;2.50;;
56943;SDS011;42848;42.524;12.052;2024-01-30T03:00:03;4.57;;;2.42;;
56943;SDS011;42848;42.524;12.052;2024-01-30T03:02:31;5.15;;;2.90;;
56943;SDS011;42848;42.524;12.052;2024-01-30T03:04:58;4.22;;;2.40;;
56943;SDS011;42848;42.524;12.052;2024-01-30T03:07:24;3.80;;;2.50;;
56943;SDS011;42848;42.524;12.052;2024-01-30T03:09:51;4.82;;;2.88;;
56943;SDS011;42848;42.524;12.052;2024-01-30T03:12:16;11.13;;;4.72;;
56943;SDS011;42848;42.524;12.052;2024-01-30T03:14:42;6.97;;;4.00;;
56943;SDS011;42848;42.524;12.052;2024-01-30T03:17:08;6.07;;;3.55;;
56943;SDS011;42848;42.524;12.052;2024-01-30T03:19:33;6.65;;;3.35;;
56943;SDS011;42848;42.524;12.052;2024-01-30T03:21:59;6.07;;;3.28;;
56943;SDS011;42848;42.524;12.052;2024-01-30T03:24:25;5.72;;;3.25;;
56943;SDS011;42848;42.524;12.052;2024-01-30T03:26:50;7.05;;;3.40;;
56943;SDS011;42848;42.524;12.052;2024-01-30T03:29:16;7.97;;;3.47;;
56943;SDS011;42848;42.524;12.052;2024-01-30T03:31:42;5.53;;;3.05;;
56943;SDS011;42848;42.524;12.052;2024-01-30T03:34:07;4.50;;;2.97;;
56943;SDS011;42848;42.524;12.052;2024-01-30T03:36:33;6.47;;;3.10;;
56943;SDS011;42848;42.524;12.052;2024-01-30T03:38:59;6.88;;;3.47;;
56943;SDS011;42848;42.524;12.052;2024-01-30T03:41:26;7.28;;;3.40;;
56943;SDS011;42848;42.524;12.052;2024-01-30T03:43:52;5.93;;;3.10;;
56943;SDS011;42848;42.524;12.052;2024-01-30T03:46:18;6.50;;;2.83;;
56943;SDS011;42848;42.524;12.052;2024-01-30T03:48:44;4.38;;;2.55;;
56943;SDS011;42848;42.524;12.052;2024-01-30T03:51:10;5.05;;;2.88;;
56943;SDS011;42848;42.524;12.052;2024-01-30T03:53:44;5.45;;;2.97;;
56943;SDS011;42848;42.524;12.052;2024-01-30T03:56:11;5.57;;;3.15;;
56943;SDS011;42848;42.524;12.052;2024-01-30T03:58:38;5.20;;;2.92;;
56943;SDS011;42848;42.524;12.052;2024-01-30T04:01:04;5.13;;;2.80;;
56943;SDS011;42848;42.524;12.052;2024-01-30T04:03:30;4.47;;;2.60;;
56943;SDS011;42848;42.524;12.052;2024-01-30T04:05:56;4.05;;;2.35;;
56943;SDS011;42848;42.524;12.052;2024-01-30T04:08:21;3.10;;;2.10;;
56943;SDS011;42848;42.524;12.052;2024-01-30T04:10:47;4.18;;;2.30;;
56943;SDS011;42848;42.524;12.052;2024-01-30T04:13:13;3.70;;;2.00;;
56943;SDS011;42848;42.524;12.052;2024-01-30T04:15:39;5.32;;;2.38;;
56943;SDS011;42848;42.524;12.052;2024-01-30T04:18:05;4.00;;;2.17;;
56943;SDS011;42848;42.524;12.052;2024-01-30T04:20:31;4.65;;;2.78;;
56943;SDS011;42848;42.524;12.052;2024-01-30T04:22:57;4.30;;;2.60;;
56943;SDS011;42848;42.524;12.052;2024-01-30T04:25:22;5.50;;;2.75;;
56943;SDS011;42848;42.524;12.052;2024-01-30T04:27:48;3.63;;;2.00;;
56943;SDS011;42848;42.524;12.052;2024-01-30T04:30:14;5.00;;;2.00;;
56943;SDS011;42848;42.524;12.052;2024-01-30T04:32:40;4.70;;;2.38;;
56943;SDS011;42848;42.524;12.052;2024-01-30T04:35:06;3.97;;;2.13;;
56943;SDS011;42848;42.524;12.052;2024-01-30T04:37:32;4.40;;;2.22;;
56943;SDS011;42848;42.524;12.052;2024-01-30T04:39:58;4.40;;;2.10;;
56943;SDS011;42848;42.524;12.052;2024-01-30T04:42:23;3.33;;;1.85;;
56943;SDS011;42848;42.524;12.052;2024-01-30T04:44:49;5.75;;;2.17;;
56943;SDS011;42848;42.524;12.052;2024-01-30T04:47:15;4.32;;;1.95;;
56943;SDS011;42848;42.524;12.052;2024-01-30T04:49:41;3.53;;;1.90;;
56943;SDS011;42848;42.524;12.052;2024-01-30T04:52:07;4.70;;;2.03;;
56943;SDS011;42848;42.524;12.052;2024-01-30T04:54:34;3.60;;;1.95;;
56943;SDS011;42848;42.524;12.052;2024-01-30T04:57:00;3.20;;;1.88;;
56943;SDS011;42848;42.524;12.052;2024-01-30T04:59:27;4.30;;;3.03;;
56943;SDS011;42848;42.524;12.052;2024-01-30T05:01:52;3.30;;;1.80;;
56943;SDS011;42848;42.524;12.052;2024-01-30T05:04:18;5.30;;;2.03;;
56943;SDS011;42848;42.524;12.052;2024-01-30T05:06:44;6.22;;;2.25;;
56943;SDS011;42848;42.524;12.052;2024-01-30T05:09:10;4.32;;;1.80;;
56943;SDS011;42848;42.524;12.052;2024-01-30T05:11:37;3.42;;;2.00;;
56943;SDS011;42848;42.524;12.052;2024-01-30T05:14:04;3.90;;;1.95;;
56943;SDS011;42848;42.524;12.052;2024-01-30T05:16:31;3.47;;;1.90;;
56943;SDS011;42848;42.524;12.052;2024-01-30T05:18:57;6.15;;;3.10;;
56943;SDS011;42848;42.524;12.052;2024-01-30T05:21:23;5.22;;;2.40;;
56943;SDS011;42848;42.524;12.052;2024-01-30T05:23:49;3.97;;;1.95;;
56943;SDS011;42848;42.524;12.052;2024-01-30T05:26:14;5.80;;;2.17;;
56943;SDS011;42848;42.524;12.052;2024-01-30T05:28:40;7.82;;;2.90;;
56943;SDS011;42848;42.524;12.052;2024-01-30T05:31:05;4.35;;;2.00;;
56943;SDS011;42848;42.524;12.052;2024-01-30T05:33:31;4.93;;;2.40;;
56943;SDS011;42848;42.524;12.052;2024-01-30T05:35:57;6.50;;;2.22;;
56943;SDS011;42848;42.524;12.052;2024-01-30T05:38:22;4.45;;;2.25;;
56943;SDS011;42848;42.524;12.052;2024-01-30T05:40:48;3.92;;;2.17;;
56943;SDS011;42848;42.524;12.052;2024-01-30T05:43:13;3.97;;;2.00;;
56943;SDS011;42848;42.524;12.052;2024-01-30T05:45:39;3.50;;;2.10;;
56943;SDS011;42848;42.524;12.052;2024-01-30T05:48:05;3.50;;;2.10;;
56943;SDS011;42848;42.524;12.052;2024-01-30T05:50:30;5.32;;;2.35;;
56943;SDS011;42848;42.524;12.052;2024-01-30T05:52:56;3.42;;;2.00;;
56943;SDS011;42848;42.524;12.052;2024-01-30T05:55:22;4.30;;;2.22;;
56943;SDS011;42848;42.524;12.052;2024-01-30T05:57:47;4.68;;;2.45;;
56943;SDS011;42848;42.524;12.052;2024-01-30T06:00:13;4.25;;;2.10;;
56943;SDS011;42848;42.524;12.052;2024-01-30T06:02:39;3.83;;;2.30;;
56943;SDS011;42848;42.524;12.052;2024-01-30T06:05:05;3.63;;;2.53;;
56943;SDS011;42848;42.524;12.052;2024-01-30T06:07:31;3.65;;;2.30;;
56943;SDS011;42848;42.524;12.052;2024-01-30T06:09:56;5.05;;;2.13;;
56943;SDS011;42848;42.524;12.052;2024-01-30T06:12:22;6.22;;;2.30;;
56943;SDS011;42848;42.524;12.052;2024-01-30T06:14:47;5.88;;;2.67;;
56943;SDS011;42848;42.524;12.052;2024-01-30T06:17:13;4.75;;;2.10;;
56943;SDS011;42848;42.524;12.052;2024-01-30T06:19:39;4.95;;;2.40;;
56943;SDS011;42848;42.524;12.052;2024-01-30T06:22:04;3.20;;;1.80;;
56943;SDS011;42848;42.524;12.052;2024-01-30T06:24:30;4.18;;;2.20;;
56943;SDS011;42848;42.524;12.052;2024-01-30T06:26:56;5.93;;;2.33;;
56943;SDS011;42848;42.524;12.052;2024-01-30T06:29:21;4.57;;;2.47;;
56943;SDS011;42848;42.524;12.052;2024-01-30T06:31:50;4.97;;;2.50;;
56943;SDS011;42848;42.524;12.052;2024-01-30T06:34:15;5.32;;;2.53;;
56943;SDS011;42848;42.524;12.052;2024-01-30T06:36:41;6.93;;;2.70;;
56943;SDS011;42848;42.524;12.052;2024-01-30T06:39:07;7.03;;;4.28;;
56943;SDS011;42848;42.524;12.052;2024-01-30T06:41:33;4.28;;;1.92;;
56943;SDS011;42848;42.524;12.052;2024-01-30T06:44:01;3.70;;;2.03;;
56943;SDS011;42848;42.524;12.052;2024-01-30T06:46:28;5.05;;;2.25;;
56943;SDS011;42848;42.524;12.052;2024-01-30T06:48:54;4.85;;;2.30;;
56943;SDS011;42848;42.524;12.052;2024-01-30T06:51:19;5.47;;;2.58;;
56943;SDS011;42848;42.524;12.052;2024-01-30T06:53:45;4.47;;;3.00;;
56943;SDS011;42848;42.524;12.052;2024-01-30T06:56:11;7.90;;;2.63;;
56943;SDS011;42848;42.524;12.052;2024-01-30T06:58:36;5.30;;;2.30;;
56943;SDS011;42848;42.524;12.052;2024-01-30T07:01:02;8.27;;;4.18;;
56943;SDS011;42848;42.524;12.052;2024-01-30T07:03:27;9.23;;;2.97;;
56943;SDS011;42848;42.524;12.052;2024-01-30T07:05:53;5.35;;;2.90;;
56943;SDS011;42848;42.524;12.052;2024-01-30T07:08:19;4.00;;;2.30;;
56943;SDS011;42848;42.524;12.052;2024-01-30T07:10:44;5.90;;;2.60;;
56943;SDS011;42848;42.524;12.052;2024-01-30T07:13:13;5.80;;;3.15;;
56943;SDS011;42848;42.524;12.052;2024-01-30T07:15:42;5.22;;;3.10;;
56943;SDS011;42848;42.524;12.052;2024-01-30T07:18:07;7.75;;;3.17;;
56943;SDS011;42848;42.524;12.052;2024-01-30T07:20:35;7.63;;;3.53;;
56943;SDS011;42848;42.524;12.052;2024-01-30T07:23:00;7.25;;;3.38;;
56943;SDS011;42848;42.524;12.052;2024-01-30T07:25:27;5.75;;;3.30;;
56943;SDS011;42848;42.524;12.052;2024-01-30T07:27:55;4.97;;;2.83;;
56943;SDS011;42848;42.524;12.052;2024-01-30T07:30:21;8.05;;;3.42;;
56943;SDS011;42848;42.524;12.052;2024-01-30T07:32:48;5.63;;;3.10;;
56943;SDS011;42848;42.524;12.052;2024-01-30T07:35:14;7.18;;;3.20;;
56943;SDS011;42848;42.524;12.052;2024-01-30T07:37:40;7.10;;;3.08;;
56943;SDS011;42848;42.524;12.052;2024-01-30T07:40:06;6.25;;;3.17;;
56943;SDS011;42848;42.524;12.052;2024-01-30T07:42:32;5.80;;;3.08;;
56943;SDS011;42848;42.524;12.052;2024-01-30T07:44:58;6.10;;;3.10;;
56943;SDS011;42848;42.524;12.052;2024-01-30T07:47:25;5.88;;;2.90;;
56943;SDS011;42848;42.524;12.052;2024-01-30T07:49:51;7.20;;;3.50;;
56943;SDS011;42848;42.524;12.052;2024-01-30T07:52:18;8.00;;;3.45;;
56943;SDS011;42848;42.524;12.052;2024-01-30T07:54:43;6.32;;;3.25;;
56943;SDS011;42848;42.524;12.052;2024-01-30T07:57:09;5.75;;;3.20;;
56943;SDS011;42848;42.524;12.052;2024-01-30T07:59:35;6.93;;;4.00;;
56943;SDS011;42848;42.524;12.052;2024-01-30T08:02:00;8.35;;;4.82;;
56943;SDS011;42848;42.524;12.052;2024-01-30T08:04:26;7.50;;;4.50;;
56943;SDS011;42848;42.524;12.052;2024-01-30T08:06:52;10.00;;;4.55;;
56943;SDS011;42848;42.524;12.052;2024-01-30T08:09:17;7.75;;;3.10;;
56943;SDS011;42848;42.524;12.052;2024-01-30T08:11:43;4.72;;;2.78;;
56943;SDS011;42848;42.524;12.052;2024-01-30T08:14:08;5.03;;;2.83;;
56943;SDS011;42848;42.524;12.052;2024-01-30T08:16:34;7.82;;;3.58;;
56943;SDS011;42848;42.524;12.052;2024-01-30T08:19:00;6.93;;;3.83;;
56943;SDS011;42848;42.524;12.052;2024-01-30T08:21:26;9.55;;;5.13;;
56943;SDS011;42848;42.524;12.052;2024-01-30T08:23:52;6.50;;;3.47;;
56943;SDS011;42848;42.524;12.052;2024-01-30T08:26:17;7.30;;;3.65;;
56943;SDS011;42848;42.524;12.052;2024-01-30T08:28:43;5.18;;;3.20;;
56943;SDS011;42848;42.524;12.052;2024-01-30T08:31:10;7.50;;;3.67;;
56943;SDS011;42848;42.524;12.052;2024-01-30T08:33:37;6.03;;;3.60;;
56943;SDS011;42848;42.524;12.052;2024-01-30T08:36:03;4.95;;;3.13;;
56943;SDS011;42848;42.524;12.052;2024-01-30T08:38:28;6.13;;;3.63;;
56943;SDS011;42848;42.524;12.052;2024-01-30T08:40:54;6.35;;;3.50;;
56943;SDS011;42848;42.524;12.052;2024-01-30T08:43:21;5.88;;;3.45;;
56943;SDS011;42848;42.524;12.052;2024-01-30T08:45:47;6.95;;;4.10;;
56943;SDS011;42848;42.524;12.052;2024-01-30T08:48:12;5.97;;;3.50;;
56943;SDS011;42848;42.524;12.052;2024-01-30T08:50:38;6.82;;;4.10;;
56943;SDS011;42848;42.524;12.052;2024-01-30T08:53:04;9.02;;;4.95;;
56943;SDS011;42848;42.524;12.052;2024-01-30T08:55:29;8.52;;;4.85;;
56943;SDS011;42848;42.524;12.052;2024-01-30T08:57:55;8.48;;;4.65;;
56943;SDS011;42848;42.524;12.052;2024-01-30T09:00:21;9.65;;;5.15;;
56943;SDS011;42848;42.524;12.052;2024-01-30T09:02:47;8.40;;;4.78;;
56943;SDS011;42848;42.524;12.052;2024-01-30T09:05:12;8.18;;;4.70;;
56943;SDS011;42848;42.524;12.052;2024-01-30T09:07:38;10.07;;;5.18;;
56943;SDS011;42848;42.524;12.052;2024-01-30T09:10:03;11.38;;;5.20;;
56943;SDS011;42848;42.524;12.052;2024-01-30T09:12:30;8.48;;;4.88;;
56943;SDS011;42848;42.524;12.052;2024-01-30T09:14:56;8.32;;;5.00;;
56943;SDS011;42848;42.524;12.052;2024-01-30T09:17:21;8.48;;;5.20;;
56943;SDS011;42848;42.524;12.052;2024-01-30T09:19:47;9.45;;;5.30;;
56943;SDS011;42848;42.524;12.052;2024-01-30T09:22:12;10.13;;;5.78;;
56943;SDS011;42848;42.524;12.052;2024-01-30T09:24:38;10.05;;;5.97;;
56943;SDS011;42848;42.524;12.052;2024-01-30T09:27:04;9.00;;;5.25;;
56943;SDS011;42848;42.524;12.052;2024-01-30T09:29:29;9.48;;;5.65;;
56943;SDS011;42848;42.524;12.052;2024-01-30T09:31:55;9.27;;;5.70;;
56943;SDS011;42848;42.524;12.052;2024-01-30T09:34:20;8.98;;;5.45;;
56943;SDS011;42848;42.524;12.052;2024-01-30T09:36:46;10.48;;;5.78;;
56943;SDS011;42848;42.524;12.052;2024-01-30T09:39:12;8.32;;;5.32;;
56943;SDS011;42848;42.524;12.052;2024-01-30T09:41:45;10.07;;;5.88;;
56943;SDS011;42848;42.524;12.052;2024-01-30T09:44:15;10.63;;;6.20;;
56943;SDS011;42848;42.524;12.052;2024-01-30T09:46:42;12.52;;;7.50;;
56943;SDS011;42848;42.524;12.052;2024-01-30T09:49:12;10.75;;;6.90;;
56943;SDS011;42848;42.524;12.052;2024-01-30T09:51:39;10.90;;;6.78;;
56943;SDS011;42848;42.524;12.052;2024-01-30T09:54:06;10.43;;;5.70;;
56943;SDS011;42848;42.524;12.052;2024-01-30T09:56:33;9.27;;;5.90;;
56943;SDS011;42848;42.524;12.052;2024-01-30T09:58:59;10.63;;;5.90;;
56943;SDS011;42848;42.524;12.052;2024-01-30T10:01:24;11.18;;;6.57;;
56943;SDS011;42848;42.524;12.052;2024-01-30T10:03:51;10.95;;;6.55;;
56943;SDS011;42848;42.524;12.052;2024-01-30T10:06:19;11.27;;;6.65;;
56943;SDS011;42848;42.524;12.052;2024-01-30T10:08:46;10.88;;;6.32;;
56943;SDS011;42848;42.524;12.052;2024-01-30T10:11:11;10.63;;;6.60;;
56943;SDS011;42848;42.524;12.052;2024-01-30T10:13:38;15.05;;;7.82;;
56943;SDS011;42848;42.524;12.052;2024-01-30T10:16:04;11.00;;;7.03;;
56943;SDS011;42848;42.524;12.052;2024-01-30T10:18:31;18.30;;;10.65;;
56943;SDS011;42848;42.524;12.052;2024-01-30T10:20:58;15.95;;;9.15;;
56943;SDS011;42848;42.524;12.052;2024-01-30T10:23:24;13.23;;;7.95;;
56943;SDS011;42848;42.524;12.052;2024-01-30T10:25:53;14.25;;;7.03;;
56943;SDS011;42848;42.524;12.052;2024-01-30T10:28:19;11.23;;;6.78;;
56943;SDS011;42848;42.524;12.052;2024-01-30T10:30:46;13.90;;;7.85;;
56943;SDS011;42848;42.524;12.052;2024-01-30T10:33:22;13.88;;;8.07;;
56943;SDS011;42848;42.524;12.052;2024-01-30T10:35:47;15.15;;;8.82;;
56943;SDS011;42848;42.524;12.052;2024-01-30T10:38:15;15.02;;;9.07;;
56943;SDS011;42848;42.524;12.052;2024-01-30T10:40:43;12.45;;;7.65;;
56943;SDS011;42848;42.524;12.052;2024-01-30T10:43:12;11.35;;;7.22;;
56943;SDS011;42848;42.524;12.052;2024-01-30T10:45:43;10.80;;;7.20;;
56943;SDS011;42848;42.524;12.052;2024-01-30T10:48:14;10.50;;;6.60;;
56943;SDS011;42848;42.524;12.052;2024-01-30T10:50:43;11.73;;;7.07;;
56943;SDS011;42848;42.524;12.052;2024-01-30T10:53:10;10.40;;;6.18;;
56943;SDS011;42848;42.524;12.052;2024-01-30T10:55:38;11.15;;;6.68;;
56943;SDS011;42848;42.524;12.052;2024-01-30T10:58:05;9.73;;;5.95;;
56943;SDS011;42848;42.524;12.052;2024-01-30T11:00:30;10.55;;;6.15;;
56943;SDS011;42848;42.524;12.052;2024-01-30T11:02:59;12.25;;;6.57;;
56943;SDS011;42848;42.524;12.052;2024-01-30T11:05:25;11.05;;;6.25;;
56943;SDS011;42848;42.524;12.052;2024-01-30T11:07:52;10.32;;;6.60;;
56943;SDS011;42848;42.524;12.052;2024-01-30T11:10:18;11.40;;;6.10;;
56943;SDS011;42848;42.524;12.052;2024-01-30T11:12:45;11.82;;;6.32;;
56943;SDS011;42848;42.524;12.052;2024-01-30T11:15:12;9.48;;;6.00;;
56943;SDS011;42848;42.524;12.052;2024-01-30T11:17:57;11.10;;;6.57;;
56943;SDS011;42848;42.524;12.052;2024-01-30T11:20:27;9.30;;;6.20;;
56943;SDS011;42848;42.524;12.052;2024-01-30T11:22:56;10.02;;;5.82;;
56943;SDS011;42848;42.524;12.052;2024-01-30T11:25:23;8.57;;;5.70;;
56943;SDS011;42848;42.524;12.052;2024-01-30T11:27:51;11.10;;;6.40;;
56943;SDS011;42848;42.524;12.052;2024-01-30T11:30:42;10.13;;;5.65;;
56943;SDS011;42848;42.524;12.052;2024-01-30T11:33:13;10.63;;;6.38;;
56943;SDS011;42848;42.524;12.052;2024-01-30T11:35:45;9.95;;;5.97;;
56943;SDS011;42848;42.524;12.052;2024-01-30T11:38:16;9.63;;;6.00;;
56943;SDS011;42848;42.524;12.052;2024-01-30T11:40:41;8.18;;;5.07;;
56943;SDS011;42848;42.524;12.052;2024-01-30T11:43:09;9.02;;;5.10;;
56943;SDS011;42848;42.524;12.052;2024-01-30T11:45:35;9.07;;;5.53;;
56943;SDS011;42848;42.524;12.052;2024-01-30T11:48:02;9.45;;;6.03;;
56943;SDS011;42848;42.524;12.052;2024-01-30T11:50:29;8.20;;;5.47;;
56943;SDS011;42848;42.524;12.052;2024-01-30T11:52:56;10.90;;;6.55;;
56943;SDS011;42848;42.524;12.052;2024-01-30T11:55:23;10.88;;;6.20;;
56943;SDS011;42848;42.524;12.052;2024-01-30T11:57:49;10.18;;;6.30;;
56943;SDS011;42848;42.524;12.052;2024-01-30T12:00:17;9.02;;;5.35;;
56943;SDS011;42848;42.524;12.052;2024-01-30T12:02:48;10.48;;;5.85;;
56943;SDS011;42848;42.524;12.052;2024-01-30T12:05:15;12.23;;;7.32;;
56943;SDS011;42848;42.524;12.052;2024-01-30T12:07:44;10.52;;;6.20;;
56943;SDS011;42848;42.524;12.052;2024-01-30T12:10:12;17.40;;;9.90;;
56943;SDS011;42848;42.524;12.052;2024-01-30T12:12:39;10.75;;;6.70;;
56943;SDS011;42848;42.524;12.052;2024-01-30T12:15:07;14.23;;;9.18;;
56943;SDS011;42848;42.524;12.052;2024-01-30T12:17:33;10.13;;;6.43;;
56943;SDS011;42848;42.524;12.052;2024-01-30T12:20:06;11.10;;;6.70;;
56943;SDS011;42848;42.524;12.052;2024-01-30T12:25:14;12.73;;;7.53;;
56943;SDS011;42848;42.524;12.052;2024-01-30T12:27:44;14.13;;;6.90;;
56943;SDS011;42848;42.524;12.052;2024-01-30T12:30:15;12.85;;;8.65;;
56943;SDS011;42848;42.524;12.052;2024-01-30T12:32:45;13.30;;;7.68;;
56943;SDS011;42848;42.524;12.052;2024-01-30T12:37:39;18.92;;;10.75;;
56943;SDS011;42848;42.524;12.052;2024-01-30T12:40:09;23.92;;;13.77;;
56943;SDS011;42848;42.524;12.052;2024-01-30T12:42:36;14.77;;;9.30;;
56943;SDS011;42848;42.524;12.052;2024-01-30T12:45:03;12.35;;;8.10;;
56943;SDS011;42848;42.524;12.052;2024-01-30T12:47:30;10.98;;;6.57;;
56943;SDS011;42848;42.524;12.052;2024-01-30T12:49:55;11.18;;;6.65;;
56943;SDS011;42848;42.524;12.052;2024-01-30T12:52:21;14.57;;;9.85;;
56943;SDS011;42848;42.524;12.052;2024-01-30T12:54:48;11.52;;;6.88;;
56943;SDS011;42848;42.524;12.052;2024-01-30T12:57:15;10.95;;;6.70;;
56943;SDS011;42848;42.524;12.052;2024-01-30T12:59:41;10.65;;;6.65;;
56943;SDS011;42848;42.524;12.052;2024-01-30T13:02:07;15.48;;;10.13;;
56943;SDS011;42848;42.524;12.052;2024-01-30T13:04:34;13.57;;;8.00;;
56943;SDS011;42848;42.524;12.052;2024-01-30T13:07:00;11.02;;;6.93;;
56943;SDS011;42848;42.524;12.052;2024-01-30T13:09:26;11.20;;;6.82;;
56943;SDS011;42848;42.524;12.052;2024-01-30T13:11:52;8.00;;;5.45;;
56943;SDS011;42848;42.524;12.052;2024-01-30T13:14:18;11.55;;;6.85;;
56943;SDS011;42848;42.524;12.052;2024-01-30T13:16:44;10.05;;;6.22;;
56943;SDS011;42848;42.524;12.052;2024-01-30T13:19:10;12.20;;;7.68;;
56943;SDS011;42848;42.524;12.052;2024-01-30T13:21:36;10.88;;;6.47;;
56943;SDS011;42848;42.524;12.052;2024-01-30T13:24:01;11.70;;;6.18;;
56943;SDS011;42848;42.524;12.052;2024-01-30T13:26:27;10.38;;;5.80;;
56943;SDS011;42848;42.524;12.052;2024-01-30T13:28:54;9.85;;;6.18;;
56943;SDS011;42848;42.524;12.052;2024-01-30T13:31:20;10.35;;;6.28;;
56943;SDS011;42848;42.524;12.052;2024-01-30T13:33:46;9.65;;;5.82;;
56943;SDS011;42848;42.524;12.052;2024-01-30T13:36:11;11.85;;;6.85;;
56943;SDS011;42848;42.524;12.052;2024-01-30T13:38:37;9.27;;;6.22;;
56943;SDS011;42848;42.524;12.052;2024-01-30T13:41:04;9.57;;;6.18;;
56943;SDS011;42848;42.524;12.052;2024-01-30T13:43:30;10.55;;;6.70;;
56943;SDS011;42848;42.524;12.052;2024-01-30T13:45:55;13.52;;;6.70;;
56943;SDS011;42848;42.524;12.052;2024-01-30T13:48:21;11.95;;;6.78;;
56943;SDS011;42848;42.524;12.052;2024-01-30T13:50:47;13.55;;;8.02;;
56943;SDS011;42848;42.524;12.052;2024-01-30T13:53:13;13.18;;;7.47;;
56943;SDS011;42848;42.524;12.052;2024-01-30T13:55:38;15.82;;;9.85;;
56943;SDS011;42848;42.524;12.052;2024-01-30T13:58:07;14.07;;;8.00;;
56943;SDS011;42848;42.524;12.052;2024-01-30T14:00:33;14.88;;;8.57;;
56943;SDS011;42848;42.524;12.052;2024-01-30T14:02:59;11.20;;;7.05;;
56943;SDS011;42848;42.524;12.052;2024-01-30T14:05:25;13.93;;;6.97;;
56943;SDS011;42848;42.524;12.052;2024-01-30T14:07:54;11.82;;;6.40;;
56943;SDS011;42848;42.524;12.052;2024-01-30T14:10:21;10.52;;;6.50;;
56943;SDS011;42848;42.524;12.052;2024-01-30T14:12:46;10.75;;;6.43;;
56943;SDS011;42848;42.524;12.052;2024-01-30T14:15:15;10.95;;;6.75;;
56943;SDS011;42848;42.524;12.052;2024-01-30T14:17:43;13.55;;;8.43;;
56943;SDS011;42848;42.524;12.052;2024-01-30T14:20:10;13.43;;;7.32;;
56943;SDS011;42848;42.524;12.052;2024-01-30T14:22:36;11.13;;;6.88;;
56943;SDS011;42848;42.524;12.052;2024-01-30T14:25:03;24.35;;;13.73;;
56943;SDS011;42848;42.524;12.052;2024-01-30T14:27:30;17.67;;;9.27;;
56943;SDS011;42848;42.524;12.052;2024-01-30T14:29:56;15.15;;;8.63;;
56943;SDS011;42848;42.524;12.052;2024-01-30T14:32:23;14.68;;;8.65;;